Time;durP1;ratioP1;P1;durP2;ratioP2;P2;SDS_P1;SDS_P2;PMS_P1;PMS_P2;Temp;Humidity;BMP_temperature;BMP_pressure;BME280_temperature;BME280_humidity;BME280_pressure;Samples;Min_cycle;Max_cycle;Signal;HPM_P1;HPM_P2
2023/07/23 00:01:10;;;;;;;17.65;6.78;;;;;;;15.87;100.00;100735.66;5033915;28;20427;-75
2023/07/23 00:03:35;;;;;;;18.63;7.25;;;;;;;15.87;100.00;100722.09;5033413;28;20084;-75
2023/07/23 00:06:01;;;;;;;19.67;7.63;;;;;;;15.88;100.00;100726.53;5044267;28;20094;-75
2023/07/23 00:08:26;;;;;;;19.27;7.15;;;;;;;15.87;100.00;100720.25;5031944;28;20029;-75
2023/07/23 00:10:57;;;;;;;20.20;7.22;;;;;;;15.87;100.00;100708.53;5036736;28;20152;-75
2023/07/23 00:13:24;;;;;;;19.83;7.70;;;;;;;15.86;100.00;100712.28;5035451;28;20112;-75
2023/07/23 00:15:49;;;;;;;20.50;7.15;;;;;;;15.87;100.00;100703.13;5031543;28;20033;-75
2023/07/23 00:18:14;;;;;;;21.27;6.93;;;;;;;15.86;100.00;100706.88;5035933;28;20036;-75
2023/07/23 00:20:40;;;;;;;21.17;7.28;;;;;;;15.88;100.00;100702.13;5018049;28;20025;-75
2023/07/23 00:23:05;;;;;;;20.60;7.80;;;;;;;15.88;100.00;100696.72;5022579;28;20456;-76
2023/07/23 00:25:30;;;;;;;19.85;6.75;;;;;;;15.87;100.00;100687.75;5027538;28;20026;-75
2023/07/23 00:27:56;;;;;;;18.13;6.47;;;;;;;15.87;100.00;100687.75;5024861;28;20036;-75
2023/07/23 00:30:21;;;;;;;19.73;7.53;;;;;;;15.88;100.00;100683.16;5024879;28;20041;-75
2023/07/23 00:32:47;;;;;;;18.23;6.88;;;;;;;15.87;100.00;100673.31;5023758;28;20025;-75
2023/07/23 00:35:12;;;;;;;18.73;7.43;;;;;;;15.86;100.00;100671.63;5024619;28;20030;-76
2023/07/23 00:37:38;;;;;;;20.08;6.53;;;;;;;15.85;100.00;100669.91;5037226;28;20029;-76
2023/07/23 00:40:04;;;;;;;19.73;6.75;;;;;;;15.83;100.00;100658.38;5033163;28;20025;-75
2023/07/23 00:42:29;;;;;;;21.38;7.18;;;;;;;15.83;100.00;100663.81;5030981;28;20030;-76
2023/07/23 00:44:54;;;;;;;20.02;7.32;;;;;;;15.81;100.00;100654.97;5041541;28;20552;-75
2023/07/23 00:47:21;;;;;;;21.38;6.82;;;;;;;15.82;100.00;100652.09;5037481;28;20028;-76
2023/07/23 00:49:46;;;;;;;18.40;6.25;;;;;;;15.80;100.00;100647.81;5041015;28;20029;-75
2023/07/23 00:52:13;;;;;;;19.70;6.90;;;;;;;15.80;100.00;100645.13;5031902;28;20384;-76
2023/07/23 00:54:38;;;;;;;18.60;6.30;;;;;;;15.78;100.00;100644.41;5027336;28;20025;-75
2023/07/23 00:57:05;;;;;;;16.42;5.70;;;;;;;15.78;100.00;100638.97;5035055;28;20450;-75
2023/07/23 00:59:32;;;;;;;18.92;6.25;;;;;;;15.78;100.00;100625.44;5039787;28;20124;-75
2023/07/23 01:01:57;;;;;;;18.20;6.25;;;;;;;15.76;100.00;100628.28;5041962;28;20112;-74
2023/07/23 01:04:23;;;;;;;21.35;6.47;;;;;;;15.76;100.00;100619.31;5047242;28;20028;-74
2023/07/23 01:06:50;;;;;;;17.67;6.40;;;;;;;15.76;100.00;100619.31;5044509;28;20101;-74
2023/07/23 01:09:18;;;;;;;15.48;6.00;;;;;;;15.74;100.00;100619.47;5058271;28;20032;-77
2023/07/23 01:11:44;;;;;;;20.27;6.25;;;;;;;15.71;100.00;100617.03;5046311;28;20038;-73
2023/07/23 01:14:09;;;;;;;16.05;6.00;;;;;;;15.71;100.00;100604.38;5056750;28;20029;-74
2023/07/23 01:16:36;;;;;;;17.27;6.38;;;;;;;15.71;100.00;100604.38;5048605;28;20033;-75
2023/07/23 01:19:02;;;;;;;17.00;5.85;;;;;;;15.71;100.00;100601.66;5048345;28;20116;-74
2023/07/23 01:21:28;;;;;;;19.65;7.35;;;;;;;15.70;100.00;100589.09;5048957;28;20069;-74
2023/07/23 01:23:54;;;;;;;23.38;7.50;;;;;;;15.69;100.00;100587.38;5053137;28;20100;-74
2023/07/23 01:26:20;;;;;;;24.23;8.18;;;;;;;15.69;100.00;100591.97;5063289;28;20028;-74
2023/07/23 01:28:46;;;;;;;23.13;8.13;;;;;;;15.69;100.00;100586.53;5056070;28;20025;-74
2023/07/23 01:31:12;;;;;;;24.60;7.97;;;;;;;15.67;100.00;100584.00;5046597;28;20026;-74
2023/07/23 01:33:39;;;;;;;24.02;8.52;;;;;;;15.68;100.00;100582.13;5056803;28;20025;-75
2023/07/23 01:36:05;;;;;;;22.38;8.50;;;;;;;15.66;100.00;100576.84;5047708;28;20033;-73
2023/07/23 01:38:31;;;;;;;23.90;8.65;;;;;;;15.66;100.00;100576.84;5045698;28;20040;-76
2023/07/23 01:40:57;;;;;;;19.05;8.00;;;;;;;15.68;100.00;100572.16;5053669;28;20457;-74
2023/07/23 01:43:23;;;;;;;22.02;8.50;;;;;;;15.66;100.00;100565.19;5056844;28;20072;-74
2023/07/23 01:45:49;;;;;;;20.25;7.47;;;;;;;15.66;100.00;100554.34;5048186;28;20039;-74
2023/07/23 01:48:15;;;;;;;19.85;6.82;;;;;;;15.65;100.00;100563.47;5046655;28;20061;-75
2023/07/23 01:50:41;;;;;;;21.33;7.88;;;;;;;15.66;100.00;100560.59;5047568;28;20033;-74
2023/07/23 01:53:07;;;;;;;19.08;6.82;;;;;;;15.69;100.00;100559.47;5050533;28;20025;-74
2023/07/23 01:55:33;;;;;;;17.90;6.88;;;;;;;15.69;100.00;100549.47;5051709;28;20012;-75
2023/07/23 01:57:59;;;;;;;19.15;7.07;;;;;;;15.71;100.00;100544.75;5051551;28;20033;-76
2023/07/23 02:00:25;;;;;;;20.08;6.95;;;;;;;15.70;100.00;100540.34;5059714;28;20028;-74
2023/07/23 02:02:50;;;;;;;18.65;6.05;;;;;;;15.74;100.00;100540.91;5052186;28;20025;-75
2023/07/23 02:05:17;;;;;;;17.45;7.18;;;;;;;15.72;100.00;100534.75;5055299;28;20480;-75
2023/07/23 02:07:43;;;;;;;16.65;6.47;;;;;;;15.74;100.00;100530.06;5051311;28;20026;-73
2023/07/23 02:10:10;;;;;;;17.70;6.20;;;;;;;15.71;100.00;100531.22;5061957;28;20029;-74
2023/07/23 02:12:35;;;;;;;19.23;6.47;;;;;;;15.73;100.00;100529.19;5050637;28;20060;-74
2023/07/23 02:15:01;;;;;;;19.95;6.75;;;;;;;15.75;100.00;100517.34;5051824;28;20356;-74
2023/07/23 02:17:26;;;;;;;18.55;6.38;;;;;;;15.78;100.00;100522.47;5054198;28;20109;-74
2023/07/23 02:19:52;;;;;;;19.10;7.10;;;;;;;15.77;100.00;100513.50;5048751;28;20033;-73
2023/07/23 02:22:17;;;;;;;18.90;6.07;;;;;;;15.78;100.00;100511.63;5053822;28;20033;-74
2023/07/23 02:24:43;;;;;;;14.15;5.47;;;;;;;15.80;100.00;100504.22;5046736;28;20021;-74
2023/07/23 02:27:08;;;;;;;17.60;6.18;;;;;;;15.82;100.00;100504.91;5051900;28;20495;-74
2023/07/23 02:29:33;;;;;;;16.92;5.95;;;;;;;15.83;100.00;100509.34;5055074;28;20025;-74
2023/07/23 02:31:59;;;;;;;19.20;7.00;;;;;;;15.82;100.00;100500.34;5046343;28;20025;-73
2023/07/23 02:34:25;;;;;;;19.60;6.43;;;;;;;15.84;100.00;100494.75;5047307;28;20053;-74
2023/07/23 02:36:50;;;;;;;24.67;6.45;;;;;;;15.85;100.00;100499.19;5062624;28;20041;-75
2023/07/23 02:39:16;;;;;;;14.27;5.18;;;;;;;15.84;100.00;100497.47;5054550;28;20112;-74
2023/07/23 02:41:41;;;;;;;21.27;6.18;;;;;;;15.83;100.00;100495.78;5057332;28;20086;-74
2023/07/23 02:44:06;;;;;;;18.23;5.57;;;;;;;15.84;99.49;100492.94;5047609;28;20252;-75
2023/07/23 02:46:32;;;;;;;17.17;5.70;;;;;;;15.85;99.83;100489.19;5056303;28;20113;-74
2023/07/23 02:48:57;;;;;;;16.02;5.82;;;;;;;15.89;99.46;100487.88;5057516;28;20037;-74
2023/07/23 02:51:22;;;;;;;17.67;6.10;;;;;;;15.89;98.71;100489.75;5046574;28;20056;-76
2023/07/23 02:53:51;;;;;;;19.75;5.60;;;;;;;15.89;98.15;100489.75;5056936;28;20515;-74
2023/07/23 02:56:17;;;;;;;16.00;5.55;;;;;;;15.91;97.61;100487.72;5050293;28;20017;-74
2023/07/23 02:58:42;;;;;;;14.35;5.22;;;;;;;15.91;96.92;100479.59;5057657;28;20116;-73
2023/07/23 03:01:09;;;;;;;17.30;5.78;;;;;;;15.92;97.05;100486.72;5052918;28;20025;-75
2023/07/23 03:03:35;;;;;;;16.20;4.68;;;;;;;15.93;97.17;100480.31;5047916;28;20037;-73
2023/07/23 03:06:01;;;;;;;16.88;5.40;;;;;;;15.94;96.66;100487.41;5059671;28;20088;-74
2023/07/23 03:08:26;;;;;;;17.02;5.75;;;;;;;15.93;98.14;100474.00;5045855;28;20029;-74
2023/07/23 03:10:52;;;;;;;15.73;5.53;;;;;;;15.91;95.80;100482.28;5051205;28;20044;-74
2023/07/23 03:13:17;;;;;;;15.45;5.45;;;;;;;15.92;95.53;100478.59;5044254;28;20045;-74
2023/07/23 03:15:42;;;;;;;14.40;5.30;;;;;;;15.93;95.15;100471.31;5049929;28;20033;-73
2023/07/23 03:18:08;;;;;;;14.20;4.95;;;;;;;15.92;96.53;100473.16;5045057;28;20116;-75
2023/07/23 03:20:34;;;;;;;15.77;5.38;;;;;;;15.92;96.12;100470.47;5052760;28;20014;-74
2023/07/23 03:22:59;;;;;;;17.20;5.50;;;;;;;15.94;95.15;100460.31;5042375;28;20092;-74
2023/07/23 03:25:25;;;;;;;15.48;4.75;;;;;;;15.93;95.52;100472.16;5047596;28;20021;-74
2023/07/23 03:27:50;;;;;;;14.07;5.22;;;;;;;15.95;95.11;100472.84;5051921;28;20071;-73
2023/07/23 03:30:15;;;;;;;16.63;5.57;;;;;;;15.93;94.38;100469.47;5047905;28;20052;-74
2023/07/23 03:32:41;;;;;;;15.38;5.30;;;;;;;15.94;95.21;100465.72;5057027;28;20488;-74
2023/07/23 03:35:09;;;;;;;16.17;5.13;;;;;;;15.96;93.18;100470.97;5048557;28;20037;-74
2023/07/23 03:37:34;;;;;;;15.32;5.40;;;;;;;15.94;92.58;100473.84;5043310;28;20396;-73
2023/07/23 03:40:00;;;;;;;16.98;5.30;;;;;;;15.96;92.21;100461.00;5051501;28;20021;-74
2023/07/23 03:42:25;;;;;;;15.77;4.95;;;;;;;15.96;91.25;100465.56;5048090;28;20037;-74
2023/07/23 03:44:50;;;;;;;19.35;5.10;;;;;;;15.96;91.90;100466.44;5054646;28;20029;-74
2023/07/23 03:47:18;;;;;;;17.05;4.93;;;;;;;15.97;90.58;100467.28;5050977;28;20032;-75
2023/07/23 03:49:44;;;;;;;15.20;5.10;;;;;;;15.98;90.62;100467.13;5049098;28;20025;-74
2023/07/23 03:52:10;;;;;;;13.60;4.63;;;;;;;16.01;91.12;100465.97;5050331;28;20028;-75
2023/07/23 03:54:36;;;;;;;15.35;5.28;;;;;;;15.99;89.05;100468.81;5048071;28;20494;-74
2023/07/23 03:57:02;;;;;;;14.73;4.97;;;;;;;16.01;89.65;100471.38;5049310;28;20032;-74
2023/07/23 03:59:36;;;;;;;17.30;4.75;;;;;;;16.02;88.87;100471.22;5040805;28;20026;-74
2023/07/23 04:02:01;;;;;;;16.55;5.10;;;;;;;16.03;90.04;100472.94;5053478;28;20040;-75
2023/07/23 04:04:27;;;;;;;15.48;4.78;;;;;;;16.05;89.77;100464.63;5051084;28;20041;-73
2023/07/23 04:06:52;;;;;;;14.73;5.32;;;;;;;16.05;88.74;100468.19;5049441;28;20068;-76
2023/07/23 04:09:19;;;;;;;13.93;4.47;;;;;;;16.05;89.43;100468.19;5036982;28;20399;-73
2023/07/23 04:11:44;;;;;;;15.10;5.15;;;;;;;16.05;87.60;100479.03;5038479;28;20041;-74
2023/07/23 04:14:10;;;;;;;15.18;4.80;;;;;;;16.06;87.85;100467.19;5033899;28;20071;-75
2023/07/23 04:16:35;;;;;;;14.77;4.07;;;;;;;16.08;88.33;100467.88;5038330;28;20093;-73
2023/07/23 04:19:00;;;;;;;16.13;4.80;;;;;;;16.10;88.03;100465.00;5035265;28;20469;-74
2023/07/23 04:21:26;;;;;;;14.30;3.97;;;;;;;16.10;87.77;100465.00;5047096;28;20025;-75
2023/07/23 04:23:55;;;;;;;13.35;4.47;;;;;;;16.13;87.47;100471.97;5041729;28;20040;-75
2023/07/23 04:26:21;;;;;;;12.55;4.35;;;;;;;16.12;87.10;100465.72;5038604;28;20030;-74
2023/07/23 04:28:48;;;;;;;15.13;5.07;;;;;;;16.16;86.93;100466.22;5047878;28;20045;-74
2023/07/23 04:31:14;;;;;;;14.02;4.40;;;;;;;16.16;88.52;100463.53;5036766;28;20431;-74
2023/07/23 04:33:39;;;;;;;13.77;4.75;;;;;;;16.17;87.38;100467.94;5043604;28;20033;-74
2023/07/23 04:36:07;;;;;;;15.05;4.85;;;;;;;16.19;87.88;100468.63;5050459;28;20021;-75
2023/07/23 04:38:32;;;;;;;13.90;4.45;;;;;;;16.19;87.27;100468.63;5048779;28;20029;-76
2023/07/23 04:40:58;;;;;;;13.10;4.63;;;;;;;16.20;86.32;100467.63;5044156;28;20159;-74
2023/07/23 04:43:23;;;;;;;14.05;4.82;;;;;;;16.22;86.94;100466.47;5040781;28;20048;-74
2023/07/23 04:45:48;;;;;;;15.98;5.20;;;;;;;16.21;90.33;100459.31;5040285;28;20029;-76
2023/07/23 04:48:16;;;;;;;14.07;4.38;;;;;;;16.22;89.79;100466.47;5037960;28;20049;-74
2023/07/23 04:50:42;;;;;;;16.38;4.72;;;;;;;16.22;88.00;100460.16;5054056;28;20063;-75
2023/07/23 04:53:07;;;;;;;15.10;4.35;;;;;;;16.23;87.38;100462.72;5045479;28;20029;-74
2023/07/23 04:55:33;;;;;;;11.52;4.10;;;;;;;16.24;85.80;100459.00;5040513;28;20017;-74
2023/07/23 04:57:58;;;;;;;14.93;4.43;;;;;;;16.26;85.17;100464.28;5049324;28;20021;-74
2023/07/23 05:00:23;;;;;;;13.85;4.18;;;;;;;16.28;85.31;100467.66;5042639;28;20026;-74
2023/07/23 05:02:49;;;;;;;13.32;4.55;;;;;;;16.31;86.75;100455.66;5055842;28;20020;-74
2023/07/23 05:05:14;;;;;;;17.80;4.90;;;;;;;16.31;88.03;100455.66;5038292;28;20400;-74
2023/07/23 05:07:39;;;;;;;14.23;4.68;;;;;;;16.30;86.72;100457.53;5043059;28;20555;-74
2023/07/23 05:10:05;;;;;;;15.45;5.32;;;;;;;16.30;88.62;100454.81;5042522;28;20017;-74
2023/07/23 05:12:30;;;;;;;14.63;4.70;;;;;;;16.29;85.93;100458.53;5057176;28;20034;-74
2023/07/23 05:15:12;;;;;;;14.25;4.75;;;;;;;16.31;87.73;100466.50;5049695;28;20029;-74
2023/07/23 05:17:38;;;;;;;13.93;4.53;;;;;;;16.28;86.50;100473.09;5038796;28;20526;-73
2023/07/23 05:20:06;;;;;;;18.33;5.32;;;;;;;16.29;89.04;100474.78;5045024;28;20388;-73
2023/07/23 05:22:32;;;;;;;14.88;4.90;;;;;;;16.31;90.29;100461.06;5046274;28;20475;-74
2023/07/23 05:24:57;;;;;;;19.73;4.95;;;;;;;16.30;91.02;100462.09;5036275;28;20021;-74
2023/07/23 05:27:23;;;;;;;16.48;4.70;;;;;;;16.30;89.65;100457.53;5038255;28;20018;-74
2023/07/23 05:29:48;;;;;;;13.65;4.07;;;;;;;16.29;89.68;100463.94;5038048;28;20037;-76
2023/07/23 05:32:13;;;;;;;13.02;4.55;;;;;;;16.29;88.75;100452.25;5040035;28;20033;-75
2023/07/23 05:34:38;;;;;;;15.85;4.35;;;;;;;16.29;88.27;100452.25;5038454;28;20044;-74
2023/07/23 05:37:04;;;;;;;15.15;4.10;;;;;;;16.27;89.17;100455.13;5039396;28;20025;-74
2023/07/23 05:39:30;;;;;;;13.90;4.75;;;;;;;16.28;88.88;100448.69;5055641;28;20039;-74
2023/07/23 05:41:55;;;;;;;12.70;4.53;;;;;;;16.29;89.35;100447.69;5047456;28;20017;-74
2023/07/23 05:44:20;;;;;;;13.10;4.40;;;;;;;16.28;88.33;100454.09;5045135;28;20075;-73
2023/07/23 05:46:46;;;;;;;13.75;4.57;;;;;;;16.28;88.76;100450.56;5047472;28;20480;-73
2023/07/23 05:49:11;;;;;;;14.90;4.65;;;;;;;16.27;87.10;100455.13;5048185;28;20047;-75
2023/07/23 05:51:36;;;;;;;18.05;4.80;;;;;;;16.26;89.42;100458.84;5056571;28;20489;-73
2023/07/23 05:54:02;;;;;;;12.60;4.28;;;;;;;16.28;88.61;100456.81;5051298;28;20033;-73
2023/07/23 05:56:29;;;;;;;16.45;5.00;;;;;;;16.29;89.17;100453.09;5035570;28;20044;-73
2023/07/23 05:58:56;;;;;;;14.32;5.00;;;;;;;16.30;90.39;100449.38;5034450;28;20031;-76
2023/07/23 06:01:21;;;;;;;14.52;4.50;;;;;;;16.30;87.12;100451.25;5051179;28;20032;-73
2023/07/23 06:03:46;;;;;;;11.73;4.00;;;;;;;16.32;89.69;100451.94;5051844;28;20033;-74
2023/07/23 06:06:12;;;;;;;12.50;4.43;;;;;;;16.31;88.35;100450.22;5041280;28;20029;-74
2023/07/23 06:08:37;;;;;;;15.85;4.00;;;;;;;16.30;87.42;100453.97;5053495;28;20036;-74
2023/07/23 06:11:02;;;;;;;13.93;4.30;;;;;;;16.33;89.60;100453.66;5048216;28;20029;-74
2023/07/23 06:13:27;;;;;;;15.02;4.32;;;;;;;16.33;89.55;100469.91;5036912;28;20029;-74
2023/07/23 06:15:53;;;;;;;16.67;5.00;;;;;;;16.30;90.54;100453.97;5040489;22;20403;-78
2023/07/23 06:18:18;;;;;;;15.25;4.45;;;;;;;16.29;91.39;100454.97;5019474;28;20025;-78
2023/07/23 06:20:43;;;;;;;12.98;4.57;;;;;;;16.27;91.09;100452.41;5025592;28;20022;-78
2023/07/23 06:23:09;;;;;;;14.43;4.47;;;;;;;16.23;91.12;100459.16;5032230;28;20462;-79
2023/07/23 06:25:34;;;;;;;10.85;4.07;;;;;;;16.21;91.35;100466.63;5029588;28;20074;-78
2023/07/23 06:27:59;;;;;;;14.00;4.60;;;;;;;16.15;91.87;100465.41;5031052;28;20076;-78
2023/07/23 06:30:25;;;;;;;13.85;4.32;;;;;;;16.17;92.80;100467.94;5033225;28;20029;-79
2023/07/23 06:32:50;;;;;;;15.20;4.88;;;;;;;16.18;92.91;100466.91;5032014;28;20033;-78
2023/07/23 06:35:15;;;;;;;18.35;4.70;;;;;;;16.17;92.30;100468.78;5031814;28;20040;-78
2023/07/23 06:37:41;;;;;;;13.13;4.47;;;;;;;16.17;93.19;100468.78;5033211;28;20032;-79
2023/07/23 06:40:07;;;;;;;13.75;5.10;;;;;;;16.19;93.06;100474.03;5031980;28;20021;-78
2023/07/23 06:42:32;;;;;;;15.73;4.53;;;;;;;16.19;92.27;100477.63;5031647;28;20025;-78
2023/07/23 06:44:57;;;;;;;13.93;4.13;;;;;;;16.20;92.26;100484.72;5033041;28;20025;-79
2023/07/23 06:47:23;;;;;;;15.55;5.47;;;;;;;16.23;93.30;100481.69;5031757;28;20370;-79
2023/07/23 06:49:48;;;;;;;15.75;5.10;;;;;;;16.21;93.21;100488.31;5028434;28;20057;-78
2023/07/23 06:52:13;;;;;;;15.23;4.78;;;;;;;16.17;94.67;100487.75;5031278;28;20029;-78
2023/07/23 06:54:42;;;;;;;15.55;4.82;;;;;;;16.13;96.09;100494.50;5031554;28;20029;-78
2023/07/23 06:57:08;;;;;;;15.43;5.10;;;;;;;16.07;97.31;100492.44;5032959;28;20958;-78
2023/07/23 06:59:33;;;;;;;14.43;4.35;;;;;;;16.04;96.95;100496.28;5032757;28;20181;-78
2023/07/23 07:01:59;;;;;;;14.68;4.60;;;;;;;15.98;100.00;100493.38;5032062;28;20388;-78
2023/07/23 07:04:24;;;;;;;17.20;5.05;;;;;;;15.96;100.00;100509.81;5031650;28;20445;-78
2023/07/23 07:06:49;;;;;;;14.40;4.85;;;;;;;15.91;99.03;100498.56;5032374;28;20037;-78
2023/07/23 07:09:14;;;;;;;17.27;5.32;;;;;;;15.87;100.00;100500.75;5032608;28;20123;-78
2023/07/23 07:11:40;;;;;;;17.67;5.35;;;;;;;15.83;100.00;100490.38;5032383;28;20045;-78
2023/07/23 07:14:05;;;;;;;14.55;4.70;;;;;;;15.78;100.00;100492.66;5032441;28;20072;-79
2023/07/23 07:16:31;;;;;;;17.85;5.22;;;;;;;15.75;100.00;100492.97;5032284;28;20137;-78
2023/07/23 07:18:56;;;;;;;16.48;5.22;;;;;;;15.73;100.00;100485.84;5031070;28;20449;-78
2023/07/23 07:21:21;;;;;;;14.13;4.97;;;;;;;15.67;100.00;100478.34;5030919;28;20025;-78
2023/07/23 07:23:47;;;;;;;17.23;4.82;;;;;;;15.69;100.00;100481.72;5031149;28;20025;-79
2023/07/23 07:26:12;;;;;;;17.63;5.38;;;;;;;15.69;100.00;100489.00;5029207;28;20032;-79
2023/07/23 07:28:37;;;;;;;17.27;5.28;;;;;;;15.66;100.00;100487.47;5031925;28;20021;-78
2023/07/23 07:31:03;;;;;;;16.55;5.97;;;;;;;15.67;100.00;100485.63;5030965;28;20111;-78
2023/07/23 07:33:29;;;;;;;15.90;5.03;;;;;;;15.68;100.00;100488.19;5030790;28;20030;-79
2023/07/23 07:35:59;;;;;;;17.60;5.82;;;;;;;15.64;100.00;100492.19;5031969;28;20029;-78
2023/07/23 07:38:26;;;;;;;16.75;5.50;;;;;;;15.64;100.00;100484.06;5030980;28;20036;-78
2023/07/23 07:40:52;;;;;;;16.77;5.28;;;;;;;15.68;100.00;100485.47;5023761;28;20536;-78
2023/07/23 07:43:18;;;;;;;17.42;5.40;;;;;;;15.69;100.00;100480.88;5030785;28;20045;-79
2023/07/23 07:45:50;;;;;;;18.55;6.05;;;;;;;15.72;100.00;100481.44;5031915;28;20067;-78
2023/07/23 07:48:20;;;;;;;19.00;6.32;;;;;;;15.77;100.00;100488.22;5030654;28;20032;-78
2023/07/23 07:50:45;;;;;;;16.67;5.65;;;;;;;15.81;100.00;100489.66;5030559;28;20076;-79
2023/07/23 07:53:11;;;;;;;15.77;5.53;;;;;;;15.83;100.00;100490.38;5030089;28;20030;-79
2023/07/23 07:55:41;;;;;;;17.73;6.38;;;;;;;15.81;100.00;100486.94;5031219;28;20116;-78
2023/07/23 07:58:07;;;;;;;17.90;5.93;;;;;;;15.81;100.00;100489.66;5029080;28;20032;-79
2023/07/23 08:00:33;;;;;;;18.08;6.20;;;;;;;15.81;100.00;100486.94;5032057;28;20029;-78
2023/07/23 08:02:59;;;;;;;17.90;5.72;;;;;;;15.82;100.00;100480.53;5031559;28;20392;-79
2023/07/23 08:05:24;;;;;;;17.38;5.40;;;;;;;15.84;100.00;100486.63;5031948;28;20052;-78
2023/07/23 08:07:50;;;;;;;17.88;5.93;;;;;;;15.85;100.00;100489.19;5047009;28;20026;-78
2023/07/23 08:10:17;;;;;;;18.40;5.88;;;;;;;15.89;100.00;100481.63;5031609;28;20025;-79
2023/07/23 08:12:43;;;;;;;18.42;5.82;;;;;;;15.86;100.00;100488.19;5030296;28;20159;-79
2023/07/23 08:15:09;;;;;;;17.80;5.50;;;;;;;15.91;100.00;100485.00;5030138;28;20116;-79
2023/07/23 08:17:35;;;;;;;19.45;6.22;;;;;;;15.93;100.00;100485.72;5033535;28;20400;-78
2023/07/23 08:20:03;;;;;;;17.23;5.45;;;;;;;15.96;100.00;100485.41;5035606;28;20028;-79
2023/07/23 08:22:29;;;;;;;17.02;5.30;;;;;;;16.02;100.00;100483.94;5034414;28;20392;-79
2023/07/23 08:24:54;;;;;;;16.27;5.32;;;;;;;16.03;100.00;100480.19;5033330;28;20025;-79
2023/07/23 08:27:21;;;;;;;15.95;5.25;;;;;;;16.06;100.00;100482.59;5035598;28;20037;-79
2023/07/23 08:29:47;;;;;;;14.63;4.78;;;;;;;16.07;100.00;100485.13;5035583;28;20485;-79
2023/07/23 08:32:16;;;;;;;15.85;4.75;;;;;;;16.12;100.00;100481.09;5033195;28;20117;-79
2023/07/23 08:34:42;;;;;;;15.90;5.05;;;;;;;16.13;100.00;100480.94;5034140;28;20053;-79
2023/07/23 08:37:09;;;;;;;15.70;4.95;;;;;;;16.16;100.00;100477.91;5032782;28;20040;-79
2023/07/23 08:39:34;;;;;;;14.20;4.65;;;;;;;16.21;100.00;100482.88;5035433;28;20551;-79
2023/07/23 08:42:02;;;;;;;14.75;4.80;;;;;;;16.22;100.00;100479.16;5035217;28;20108;-79
2023/07/23 08:44:53;;;;;;;12.52;3.88;;;;;;;16.26;100.00;100483.25;5035174;28;20504;-78
2023/07/23 08:47:21;;;;;;;13.43;4.38;;;;;;;16.25;100.00;100467.97;5024808;28;20048;-79
2023/07/23 08:49:47;;;;;;;14.80;4.18;;;;;;;16.25;100.00;100484.25;5035166;28;20025;-79
2023/07/23 08:52:13;;;;;;;14.10;4.55;;;;;;;16.25;100.00;100479.69;5033714;28;20021;-79
2023/07/23 08:54:41;;;;;;;14.15;3.75;;;;;;;16.30;100.00;100481.09;5035238;28;20079;-79
2023/07/23 08:57:08;;;;;;;11.45;3.40;;;;;;;16.25;100.00;100474.28;5026621;28;20087;-79
2023/07/23 08:59:35;;;;;;;13.13;4.20;;;;;;;16.28;100.00;100478.50;5033674;28;20033;-79
2023/07/23 09:02:02;;;;;;;13.15;4.05;;;;;;;16.29;100.00;100479.38;5050295;28;20029;-79
2023/07/23 09:04:27;;;;;;;10.25;3.33;;;;;;;16.29;100.00;100485.63;5033799;28;20033;-79
2023/07/23 09:06:56;;;;;;;10.90;3.67;;;;;;;16.30;100.00;100481.94;5033353;28;20123;-79
2023/07/23 09:09:22;;;;;;;10.15;3.60;;;;;;;16.31;100.00;100488.19;5030465;28;20021;-79
2023/07/23 09:11:47;;;;;;;13.30;3.63;;;;;;;16.33;100.00;100489.75;5032032;28;20029;-79
2023/07/23 09:14:14;;;;;;;8.98;3.30;;;;;;;16.33;100.00;100480.75;5044789;28;20051;-79
2023/07/23 09:16:45;;;;;;;10.40;3.60;;;;;;;16.33;100.00;100486.19;5029323;28;20030;-79
2023/07/23 09:19:12;;;;;;;11.05;3.40;;;;;;;16.34;100.00;100488.75;5031082;28;20036;-79
2023/07/23 09:21:39;;;;;;;10.48;3.58;;;;;;;16.35;100.00;100498.56;5019056;28;20029;-79
2023/07/23 09:24:07;;;;;;;13.52;4.10;;;;;;;16.34;100.00;100490.59;5032643;28;20388;-78
2023/07/23 09:26:36;;;;;;;12.85;3.97;;;;;;;16.33;100.00;100492.44;5024918;28;20432;-79
2023/07/23 09:29:07;;;;;;;10.48;3.33;;;;;;;16.34;100.00;100490.59;5033159;28;20493;-79
2023/07/23 09:31:32;;;;;;;12.90;4.10;;;;;;;16.34;100.00;100493.28;5034438;28;20477;-79
2023/07/23 09:34:00;;;;;;;10.63;3.35;;;;;;;16.31;100.00;100497.19;5033082;28;20044;-79
2023/07/23 09:36:27;;;;;;;8.82;3.45;;;;;;;16.32;100.00;100495.31;5032911;28;20022;-78
2023/07/23 09:39:01;;;;;;;11.45;3.40;;;;;;;16.33;100.00;100497.88;5034308;28;20033;-78
2023/07/23 09:41:38;;;;;;;8.73;3.30;;;;;;;16.34;100.00;100498.72;5031041;28;20040;-79
2023/07/23 09:44:08;;;;;;;12.07;3.47;;;;;;;16.33;100.00;100495.16;5026014;28;20021;-79
2023/07/23 09:46:35;;;;;;;11.07;3.38;;;;;;;16.39;100.00;100496.41;5032845;28;20120;-79
2023/07/23 09:49:00;;;;;;;13.35;3.88;;;;;;;16.40;100.00;100501.66;5026001;28;20049;-78
2023/07/23 09:51:26;;;;;;;10.95;3.50;;;;;;;16.44;100.00;100502.19;5031302;28;20534;-78
2023/07/23 09:53:51;;;;;;;12.27;4.20;;;;;;;16.46;100.00;100494.75;5031731;28;20064;-79
2023/07/23 09:56:18;;;;;;;12.85;3.53;;;;;;;16.41;100.00;100502.50;5032546;28;20070;-79
2023/07/23 09:58:47;;;;;;;12.85;3.63;;;;;;;16.40;100.00;100501.66;5034175;28;20064;-79
2023/07/23 10:01:14;;;;;;;9.67;3.30;;;;;;;16.35;100.00;100506.69;5025777;28;20484;-79
2023/07/23 10:03:40;;;;;;;12.30;3.42;;;;;;;16.31;100.00;100505.34;5033723;28;20373;-80
2023/07/23 10:06:10;;;;;;;8.95;3.13;;;;;;;16.27;100.00;100492.22;5032244;28;20036;-79
2023/07/23 10:08:38;;;;;;;10.88;3.35;;;;;;;16.25;100.00;100512.25;5032466;28;20388;-78
2023/07/23 10:11:03;;;;;;;10.48;3.20;;;;;;;16.25;100.00;100512.25;5033538;28;20029;-79
2023/07/23 10:13:28;;;;;;;9.98;2.90;;;;;;;16.24;100.00;100507.81;5032671;28;20408;-78
2023/07/23 10:15:54;;;;;;;11.93;3.67;;;;;;;16.23;100.00;100521.53;5033595;28;20049;-79
2023/07/23 10:18:24;;;;;;;7.85;2.75;;;;;;;16.24;100.00;100518.66;5032330;28;20079;-79
2023/07/23 10:20:50;;;;;;;9.70;3.00;;;;;;;16.27;100.00;100520.22;5032797;28;20022;-79
2023/07/23 10:23:16;;;;;;;11.82;3.10;;;;;;;16.25;100.00;100516.78;5031886;28;20032;-79
2023/07/23 10:25:41;;;;;;;9.73;3.28;;;;;;;16.25;100.00;100522.22;5030940;28;20045;-78
2023/07/23 10:28:09;;;;;;;8.55;2.80;;;;;;;16.26;100.00;100510.38;5028527;28;20026;-79
2023/07/23 10:30:38;;;;;;;9.95;3.17;;;;;;;16.28;100.00;100515.63;5033201;28;20358;-79
2023/07/23 10:33:09;;;;;;;9.82;3.20;;;;;;;16.29;100.00;100509.22;5033206;28;20048;-79
2023/07/23 10:35:53;;;;;;;12.93;3.70;;;;;;;16.29;100.00;100518.19;5031985;28;20033;-78
2023/07/23 10:38:20;;;;;;;9.77;3.60;;;;;;;16.30;100.00;100517.19;5031990;28;20025;-78
2023/07/23 10:40:47;;;;;;;12.05;3.53;;;;;;;16.32;100.00;100527.88;5047862;28;20396;-79
2023/07/23 10:43:13;;;;;;;9.70;3.60;;;;;;;16.34;100.00;100521.28;5032981;28;20053;-78
2023/07/23 10:45:38;;;;;;;10.40;3.45;;;;;;;16.36;100.00;100524.69;5032980;28;20429;-78
2023/07/23 10:48:04;;;;;;;8.40;3.28;;;;;;;16.40;100.00;100517.94;5032970;28;20105;-78
2023/07/23 10:50:33;;;;;;;13.35;4.22;;;;;;;16.42;100.00;100521.31;5031445;28;20029;-79
2023/07/23 10:53:03;;;;;;;13.13;3.58;;;;;;;16.47;100.00;100517.28;5031589;28;20112;-78
2023/07/23 10:55:34;;;;;;;11.77;3.85;;;;;;;16.47;100.00;100509.16;5031465;28;20108;-79
2023/07/23 10:58:02;;;;;;;11.82;3.75;;;;;;;16.50;100.00;100517.84;5031396;28;20440;-79
2023/07/23 11:00:30;;;;;;;11.20;3.78;;;;;;;16.55;100.00;100515.47;5032863;28;20387;-78
2023/07/23 11:02:56;;;;;;;13.77;3.97;;;;;;;16.58;100.00;100517.03;5032561;28;20035;-78
2023/07/23 11:05:21;;;;;;;12.60;4.10;;;;;;;16.64;100.00;100510.97;5031236;28;20476;-79
2023/07/23 11:08:16;;;;;;;10.10;3.75;;;;;;;16.70;100.00;100509.47;5030188;28;20056;-79